Time;durP1;ratioP1;P1;durP2;ratioP2;P2;SDS_P1;SDS_P2;PMS_P1;PMS_P2;Temp;Humidity;BMP_temperature;BMP_pressure;BME280_temperature;BME280_humidity;BME280_pressure;Samples;Min_cycle;Max_cycle;Signal;HPM_P1;HPM_P2
2024/03/20 00:01:30;;;;;;;3.13;2.83;;;;;;;2.39;99.56;100711.72;4989456;28;20025;-73
2024/03/20 00:03:56;;;;;;;2.85;2.08;;;;;;;2.40;99.49;100709.22;4989295;28;20027;-73
2024/03/20 00:06:21;;;;;;;3.55;3.17;;;;;;;2.48;99.27;100709.44;4989228;28;20022;-73
2024/03/20 00:08:46;;;;;;;3.85;2.60;;;;;;;2.36;99.67;100694.56;4989231;28;20022;-73
2024/03/20 00:11:12;;;;;;;6.80;2.83;;;;;;;2.48;99.46;100704.31;4989049;28;20459;-73
2024/03/20 00:13:37;;;;;;;6.40;5.30;;;;;;;2.38;100.00;100704.88;4971681;28;20033;-74
2024/03/20 00:16:03;;;;;;;6.72;4.30;;;;;;;2.42;100.00;100706.69;4971623;28;20030;-73
2024/03/20 00:18:30;;;;;;;3.95;2.67;;;;;;;2.37;100.00;100692.88;4989064;28;20270;-73
2024/03/20 00:20:55;;;;;;;5.40;4.57;;;;;;;2.44;100.00;100698.25;4988719;28;20018;-73
2024/03/20 00:23:22;;;;;;;8.77;5.15;;;;;;;2.47;100.00;100700.91;4988831;28;20082;-73
2024/03/20 00:25:48;;;;;;;5.35;2.83;;;;;;;2.48;100.00;100697.50;4987369;28;20430;-72
2024/03/20 00:28:13;;;;;;;6.32;3.85;;;;;;;2.50;100.00;100686.41;4988709;28;20030;-74
2024/03/20 00:30:39;;;;;;;4.88;3.60;;;;;;;2.63;100.00;100690.22;4971078;28;20046;-73
2024/03/20 00:33:04;;;;;;;7.22;3.22;;;;;;;2.54;100.00;100691.66;4988723;28;20027;-74
2024/03/20 00:35:33;;;;;;;4.50;3.58;;;;;;;2.56;100.00;100699.41;4988780;28;20022;-73
2024/03/20 00:37:59;;;;;;;6.05;4.07;;;;;;;2.57;100.00;100688.34;4971276;28;20026;-73
2024/03/20 00:40:24;;;;;;;10.13;5.00;;;;;;;2.56;100.00;100686.59;4988268;28;20033;-73
2024/03/20 00:42:50;;;;;;;4.53;2.92;;;;;;;2.59;100.00;100684.13;4988561;28;20102;-74
2024/03/20 00:45:15;;;;;;;3.55;3.30;;;;;;;2.60;100.00;100684.16;4971162;28;20027;-71
2024/03/20 00:47:40;;;;;;;1.38;1.38;;;;;;;2.62;100.00;100688.47;4988619;28;20023;-73
2024/03/20 00:50:06;;;;;;;0.93;0.93;;;;;;;2.65;100.00;100683.44;4971018;28;20046;-75
2024/03/20 00:52:31;;;;;;;0.50;0.50;;;;;;;2.60;100.00;100683.31;4988507;28;20073;-74
2024/03/20 00:54:57;;;;;;;0.60;0.60;;;;;;;2.63;100.00;100691.09;4988417;28;20030;-74
2024/03/20 00:57:22;;;;;;;0.40;0.40;;;;;;;2.73;100.00;100685.38;4988438;28;20050;-74
2024/03/20 00:59:47;;;;;;;0.40;0.40;;;;;;;2.66;100.00;100683.47;4970980;28;20038;-73
2024/03/20 01:02:13;;;;;;;0.55;0.55;;;;;;;2.65;100.00;100683.44;4970774;28;20039;-74
2024/03/20 01:04:38;;;;;;;0.40;0.40;;;;;;;2.69;100.00;100675.00;4970849;28;20103;-75
2024/03/20 01:07:03;;;;;;;0.40;0.40;;;;;;;2.63;100.00;100665.44;4988160;28;20031;-75
2024/03/20 01:09:29;;;;;;;0.40;0.40;;;;;;;2.63;100.00;100660.31;4970579;28;20036;-74
2024/03/20 01:11:54;;;;;;;0.55;0.55;;;;;;;2.77;100.00;100670.09;4988075;28;20463;-74
2024/03/20 01:14:20;;;;;;;0.57;0.57;;;;;;;2.69;100.00;100675.00;4988100;28;20087;-75
2024/03/20 01:16:48;;;;;;;0.50;0.50;;;;;;;2.68;100.00;100661.34;4970554;28;20031;-75
2024/03/20 01:19:14;;;;;;;0.50;0.50;;;;;;;2.66;100.00;100655.28;4987938;28;20029;-75
2024/03/20 01:21:39;;;;;;;0.43;0.43;;;;;;;2.74;100.00;100665.75;4987956;28;20105;-75
2024/03/20 01:24:05;;;;;;;0.50;0.50;;;;;;;2.72;100.00;100663.16;4988561;28;20444;-74
2024/03/20 01:26:30;;;;;;;0.50;0.50;;;;;;;2.70;100.00;100662.22;4989490;28;20046;-76
2024/03/20 01:28:55;;;;;;;0.55;0.55;;;;;;;2.70;100.00;100657.09;4987773;28;20467;-75
2024/03/20 01:31:21;;;;;;;0.50;0.50;;;;;;;2.78;100.00;100652.19;4987427;28;20042;-76
2024/03/20 01:33:47;;;;;;;0.75;0.75;;;;;;;2.77;100.00;100642.75;4987675;28;20043;-76
2024/03/20 01:36:12;;;;;;;0.50;0.50;;;;;;;2.82;100.00;100648.00;4987636;28;20053;-77
2024/03/20 01:38:37;;;;;;;0.40;0.40;;;;;;;2.77;100.00;100647.88;4987569;28;20033;-77
2024/03/20 01:41:03;;;;;;;0.50;0.50;;;;;;;2.76;100.00;100635.91;4987292;28;20533;-75
2024/03/20 01:43:28;;;;;;;0.57;0.57;;;;;;;2.78;100.00;100643.63;4987468;28;20023;-76
2024/03/20 01:45:54;;;;;;;0.50;0.50;;;;;;;2.81;100.00;100634.31;4969850;28;20031;-75
2024/03/20 01:48:19;;;;;;;0.50;0.50;;;;;;;2.79;100.00;100638.56;4970157;28;20027;-76
2024/03/20 01:50:45;;;;;;;0.80;0.80;;;;;;;2.81;100.00;100633.47;4987359;28;20053;-76
2024/03/20 01:53:13;;;;;;;0.80;0.80;;;;;;;2.88;100.00;100637.91;4986595;28;20034;-76
2024/03/20 01:55:39;;;;;;;0.50;0.50;;;;;;;2.88;100.00;100635.34;4987097;28;20027;-75
2024/03/20 01:58:05;;;;;;;4.50;4.22;;;;;;;2.84;100.00;100629.25;4969708;28;20414;-76
2024/03/20 02:00:30;;;;;;;0.50;0.50;;;;;;;2.89;100.00;100636.22;4987188;28;20023;-76
2024/03/20 02:02:58;;;;;;;0.40;0.40;;;;;;;2.83;100.00;100639.47;4987299;28;20086;-77
2024/03/20 02:05:24;;;;;;;0.50;0.50;;;;;;;2.84;100.00;100636.09;4987041;28;20031;-76
2024/03/20 02:07:52;;;;;;;3.80;1.27;;;;;;;2.89;100.00;100634.50;4987094;28;20030;-75
2024/03/20 02:10:18;;;;;;;0.40;0.40;;;;;;;2.84;100.00;100623.28;4969502;28;20415;-76
2024/03/20 02:12:43;;;;;;;0.40;0.40;;;;;;;2.87;100.00;100632.75;4985747;28;20078;-77
2024/03/20 02:15:09;;;;;;;0.40;0.40;;;;;;;2.93;100.00;100632.91;4987118;28;20046;-78
2024/03/20 02:17:36;;;;;;;0.40;0.40;;;;;;;2.94;100.00;100621.84;4985630;28;20023;-77
2024/03/20 02:20:04;;;;;;;0.52;0.52;;;;;;;3.01;100.00;100623.72;4986900;28;20078;-78
2024/03/20 02:22:32;;;;;;;0.70;0.70;;;;;;;3.02;100.00;100627.16;4969488;28;20027;-77
2024/03/20 02:24:59;;;;;;;0.50;0.50;;;;;;;2.99;100.00;100624.53;4986841;28;20045;-78
2024/03/20 02:27:24;;;;;;;0.40;0.40;;;;;;;3.04;100.00;100620.34;4969362;28;20122;-76
2024/03/20 02:29:50;;;;;;;0.60;0.60;;;;;;;3.08;100.00;100627.31;4986816;28;20030;-76
2024/03/20 02:32:15;;;;;;;0.47;0.47;;;;;;;3.07;100.00;100612.75;4969041;28;20495;-76
2024/03/20 02:34:40;;;;;;;0.50;0.50;;;;;;;3.11;100.00;100632.53;4986733;28;20033;-76
2024/03/20 02:37:06;;;;;;;0.43;0.43;;;;;;;3.12;100.00;100624.00;4986725;28;20446;-76
2024/03/20 02:39:31;;;;;;;0.40;0.40;;;;;;;3.15;100.00;100623.19;4986349;28;20034;-76
2024/03/20 02:41:56;;;;;;;0.50;0.50;;;;;;;3.18;100.00;100623.31;4986925;28;20061;-76
2024/03/20 02:44:22;;;;;;;1.15;1.08;;;;;;;3.24;100.00;100623.47;4986664;28;20026;-75
2024/03/20 02:46:47;;;;;;;0.40;0.40;;;;;;;3.26;100.00;100616.66;4986769;28;20113;-76
2024/03/20 02:49:12;;;;;;;0.40;0.40;;;;;;;3.28;100.00;100621.81;4969263;28;20023;-75
2024/03/20 02:51:38;;;;;;;0.50;0.50;;;;;;;3.22;100.00;100609.72;4986560;28;20019;-76
2024/03/20 02:54:03;;;;;;;0.50;0.50;;;;;;;3.37;100.00;100627.19;4986428;28;20459;-76
2024/03/20 02:56:28;;;;;;;0.50;0.50;;;;;;;3.34;100.00;100627.09;4986485;28;20038;-76
2024/03/20 02:58:54;;;;;;;0.60;0.60;;;;;;;3.36;100.00;100625.44;4986734;28;20023;-76
2024/03/20 03:01:19;;;;;;;0.50;0.50;;;;;;;3.40;100.00;100621.28;4986494;28;20031;-75
2024/03/20 03:03:45;;;;;;;0.40;0.40;;;;;;;3.41;100.00;100616.19;4986950;28;20121;-76
2024/03/20 03:06:10;;;;;;;0.40;0.40;;;;;;;3.38;100.00;100613.53;4973212;28;20026;-76
2024/03/20 03:08:35;;;;;;;0.40;0.40;;;;;;;3.33;100.00;100599.72;4973155;28;20034;-76
2024/03/20 03:11:01;;;;;;;0.40;0.40;;;;;;;3.44;100.00;100615.38;4990405;28;20431;-75
2024/03/20 03:13:26;;;;;;;0.50;0.50;;;;;;;3.49;100.00;100607.78;4990237;28;20026;-76
2024/03/20 03:15:52;;;;;;;0.82;0.82;;;;;;;3.50;100.00;100614.66;4973043;28;20033;-76
2024/03/20 03:18:17;;;;;;;4.78;1.80;;;;;;;3.52;100.00;100613.88;4990480;28;20023;-75
2024/03/20 03:20:42;;;;;;;0.40;0.40;;;;;;;3.53;100.00;100620.72;4990273;28;20098;-75
2024/03/20 03:23:08;;;;;;;0.40;0.40;;;;;;;3.57;100.00;100614.84;4972750;28;20026;-75
2024/03/20 03:25:33;;;;;;;0.40;0.40;;;;;;;3.59;100.00;100609.75;4989979;28;20023;-75
2024/03/20 03:27:58;;;;;;;0.40;0.40;;;;;;;3.62;100.00;100609.81;4990218;28;20026;-75
2024/03/20 03:30:24;;;;;;;0.40;0.40;;;;;;;3.60;100.00;100606.34;4988533;28;20046;-75
2024/03/20 03:32:49;;;;;;;0.50;0.50;;;;;;;3.66;100.00;100616.75;4990015;28;20137;-76
2024/03/20 03:35:15;;;;;;;2.05;1.85;;;;;;;3.64;100.00;100613.31;4990082;28;20050;-75
2024/03/20 03:37:40;;;;;;;0.60;0.60;;;;;;;3.66;100.00;100614.19;4972852;28;20023;-75
2024/03/20 03:40:10;;;;;;;0.50;0.50;;;;;;;3.71;100.00;100622.00;4990490;28;20031;-75
2024/03/20 03:42:36;;;;;;;0.50;0.50;;;;;;;3.66;100.00;100609.03;4991689;28;20026;-75
2024/03/20 03:45:01;;;;;;;0.60;0.60;;;;;;;3.72;100.00;100616.88;4990002;28;20082;-75
2024/03/20 03:47:33;;;;;;;1.67;1.58;;;;;;;3.73;100.00;100620.34;4989740;28;20026;-75
2024/03/20 03:49:58;;;;;;;0.57;0.57;;;;;;;3.78;100.00;100615.31;4989791;28;20031;-75
2024/03/20 03:52:24;;;;;;;0.40;0.40;;;;;;;3.75;100.00;100607.53;4989599;28;20391;-75
2024/03/20 03:54:49;;;;;;;0.68;0.68;;;;;;;3.80;100.00;100613.66;4989499;28;20027;-74
2024/03/20 03:57:14;;;;;;;0.50;0.50;;;;;;;3.83;100.00;100611.16;4972120;28;20027;-74
2024/03/20 03:59:40;;;;;;;0.40;0.40;;;;;;;3.85;100.00;100606.88;4972114;28;20023;-74
2024/03/20 04:02:05;;;;;;;0.40;0.40;;;;;;;3.86;100.00;100607.78;4972036;28;20023;-76
2024/03/20 04:04:31;;;;;;;0.85;0.85;;;;;;;3.89;100.00;100608.72;4989449;28;20050;-75
2024/03/20 04:06:56;;;;;;;0.77;0.77;;;;;;;3.83;100.00;100585.47;4989561;28;20382;-75
2024/03/20 04:09:21;;;;;;;0.82;0.82;;;;;;;3.89;100.00;100608.72;4989336;28;20101;-75
2024/03/20 04:11:47;;;;;;;0.50;0.50;;;;;;;3.91;100.00;100594.22;4971911;28;20042;-75
2024/03/20 04:14:14;;;;;;;0.50;0.50;;;;;;;3.94;100.00;100603.69;4971723;28;20485;-74
2024/03/20 04:16:40;;;;;;;1.60;1.58;;;;;;;3.94;100.00;100602.00;4988552;28;20030;-74
2024/03/20 04:19:05;;;;;;;0.40;0.40;;;;;;;3.92;100.00;100598.50;4989300;28;20026;-75
2024/03/20 04:21:31;;;;;;;0.47;0.47;;;;;;;3.93;100.00;100602.81;4989008;28;20031;-75
2024/03/20 04:23:56;;;;;;;0.40;0.40;;;;;;;3.95;100.00;100601.16;4971395;28;20027;-75
2024/03/20 04:26:23;;;;;;;0.47;0.47;;;;;;;3.94;100.00;100602.00;4971596;28;20030;-75
2024/03/20 04:28:48;;;;;;;0.50;0.50;;;;;;;3.93;100.00;100602.81;4988976;28;20455;-75
2024/03/20 04:31:14;;;;;;;0.40;0.40;;;;;;;4.01;100.00;100596.97;4988811;28;20050;-75
2024/03/20 04:33:40;;;;;;;0.50;0.50;;;;;;;3.99;100.00;100611.47;4988785;28;20090;-74
2024/03/20 04:36:06;;;;;;;2.20;2.10;;;;;;;3.99;100.00;100598.63;4971405;28;20082;-75
2024/03/20 04:38:33;;;;;;;2.30;1.85;;;;;;;4.01;100.00;100602.97;4988690;28;20071;-76
2024/03/20 04:40:58;;;;;;;0.40;0.40;;;;;;;4.04;100.00;100612.47;4971214;28;20029;-75
2024/03/20 04:43:23;;;;;;;0.40;0.40;;;;;;;4.06;100.00;100605.63;4988678;28;20026;-74
2024/03/20 04:45:49;;;;;;;0.82;0.82;;;;;;;4.10;100.00;100607.44;4988717;28;20027;-75
2024/03/20 04:48:14;;;;;;;0.40;0.40;;;;;;;4.11;100.00;100604.03;4988491;28;20038;-75
2024/03/20 04:50:39;;;;;;;0.40;0.40;;;;;;;4.12;100.00;100602.34;4971069;28;20027;-75
2024/03/20 04:53:05;;;;;;;0.40;0.40;;;;;;;4.13;100.00;100604.94;4971130;28;20502;-75
2024/03/20 04:55:30;;;;;;;0.40;0.40;;;;;;;4.18;100.00;100615.31;4970761;28;20023;-75
2024/03/20 04:57:55;;;;;;;0.40;0.40;;;;;;;4.14;100.00;100614.38;4988363;28;20061;-75
2024/03/20 05:00:21;;;;;;;0.40;0.40;;;;;;;4.20;100.00;100619.66;4988396;28;20435;-76
2024/03/20 05:02:46;;;;;;;0.40;0.40;;;;;;;4.20;100.00;100617.06;4970918;28;20019;-75
2024/03/20 05:05:12;;;;;;;0.40;0.40;;;;;;;4.24;100.00;100617.16;4988359;28;20078;-74
2024/03/20 05:07:37;;;;;;;0.82;0.82;;;;;;;4.23;100.00;100616.28;4988491;28;20041;-75
2024/03/20 05:10:04;;;;;;;0.40;0.40;;;;;;;4.26;100.00;100618.94;4988113;28;20018;-74
2024/03/20 05:12:30;;;;;;;1.67;1.58;;;;;;;4.30;100.00;100619.84;4986824;28;20154;-74
2024/03/20 05:14:56;;;;;;;0.50;0.50;;;;;;;4.32;100.00;100618.19;4970579;28;20057;-76
2024/03/20 05:17:21;;;;;;;0.63;0.63;;;;;;;4.34;100.00;100619.94;4988034;28;20027;-74
2024/03/20 05:19:46;;;;;;;1.50;1.40;;;;;;;4.28;100.00;100617.25;4988089;28;20027;-74
2024/03/20 05:22:12;;;;;;;0.40;0.40;;;;;;;4.29;100.00;100618.13;4988014;28;20034;-74
2024/03/20 05:24:37;;;;;;;0.50;0.50;;;;;;;4.32;100.00;100621.63;4987780;28;20023;-74
2024/03/20 05:27:03;;;;;;;0.52;0.52;;;;;;;4.35;100.00;100623.38;4987530;28;20030;-75
2024/03/20 05:29:28;;;;;;;2.67;2.47;;;;;;;4.36;100.00;100619.97;4987441;28;20050;-74
2024/03/20 05:31:53;;;;;;;0.40;0.40;;;;;;;4.41;100.00;100632.94;4987698;28;20380;-73
2024/03/20 05:34:19;;;;;;;0.40;0.40;;;;;;;4.40;100.00;100633.75;4987698;28;20019;-74
2024/03/20 05:36:44;;;;;;;4.03;1.95;;;;;;;4.38;100.00;100632.88;4970262;28;20031;-74
2024/03/20 05:39:11;;;;;;;0.52;0.52;;;;;;;4.35;100.00;100641.38;4987760;28;20489;-74
2024/03/20 05:41:40;;;;;;;0.60;0.60;;;;;;;4.37;100.00;100637.16;4987583;28;20023;-73
2024/03/20 05:44:05;;;;;;;0.40;0.40;;;;;;;4.46;100.00;100647.63;4987614;28;20034;-73
2024/03/20 05:46:33;;;;;;;2.05;1.95;;;;;;;4.49;100.00;100653.66;4970182;28;20023;-73
2024/03/20 05:48:58;;;;;;;0.45;0.45;;;;;;;4.52;100.00;100646.00;4970138;28;20030;-72
2024/03/20 05:51:24;;;;;;;2.67;2.05;;;;;;;4.50;100.00;100642.53;4987423;28;20023;-73
2024/03/20 05:53:50;;;;;;;0.40;0.40;;;;;;;4.51;100.00;100646.81;4969842;28;20035;-73
2024/03/20 05:56:15;;;;;;;0.50;0.50;;;;;;;4.50;100.00;100642.53;4987297;28;20027;-74
2024/03/20 05:58:42;;;;;;;1.38;1.38;;;;;;;4.55;100.00;100649.50;4988775;28;20030;-73
2024/03/20 06:01:08;;;;;;;0.40;0.40;;;;;;;4.54;100.00;100652.91;4987154;28;20050;-73
2024/03/20 06:03:34;;;;;;;0.45;0.45;;;;;;;4.57;100.00;100652.09;4985674;28;20082;-74
2024/03/20 06:06:00;;;;;;;0.40;0.40;;;;;;;4.52;100.00;100646.84;4987110;28;20030;-74
2024/03/20 06:08:25;;;;;;;3.72;3.42;;;;;;;4.63;100.00;100659.09;4987039;28;20554;-73
2024/03/20 06:10:51;;;;;;;3.22;3.03;;;;;;;4.63;100.00;100656.50;4986818;28;20049;-74
2024/03/20 06:13:17;;;;;;;0.47;0.47;;;;;;;4.58;100.00;100656.41;4969675;28;20418;-74
2024/03/20 06:15:42;;;;;;;0.40;0.40;;;;;;;4.58;100.00;100664.97;4987167;28;20544;-74
2024/03/20 06:18:08;;;;;;;2.15;2.05;;;;;;;4.55;100.00;100664.06;4969630;28;20026;-73
2024/03/20 06:20:34;;;;;;;2.53;2.42;;;;;;;4.49;100.00;100663.94;4985582;28;20054;-74
2024/03/20 06:22:59;;;;;;;5.22;1.75;;;;;;;4.51;100.00;100672.53;4986457;28;20030;-74
2024/03/20 06:25:25;;;;;;;1.23;1.23;;;;;;;4.58;100.00;100682.13;4985865;28;20022;-74
2024/03/20 06:27:50;;;;;;;0.40;0.40;;;;;;;4.59;100.00;100681.28;4986222;28;20480;-74
2024/03/20 06:30:16;;;;;;;0.70;0.70;;;;;;;4.56;100.00;100670.94;4986374;28;20027;-73
2024/03/20 06:32:42;;;;;;;0.47;0.47;;;;;;;4.58;100.00;100671.84;4986432;28;20078;-74
2024/03/20 06:35:08;;;;;;;0.40;0.40;;;;;;;4.57;100.00;100678.69;4985696;28;20098;-73
2024/03/20 06:37:34;;;;;;;0.40;0.40;;;;;;;4.56;100.00;100681.22;4985935;28;20026;-74
2024/03/20 06:40:00;;;;;;;0.47;0.47;;;;;;;4.54;100.00;100675.19;4984866;28;20022;-73
2024/03/20 06:42:26;;;;;;;0.40;0.40;;;;;;;4.47;100.00;100675.06;4968673;28;20022;-73
2024/03/20 06:44:52;;;;;;;0.40;0.40;;;;;;;4.46;100.00;100672.44;4986660;28;20031;-76
2024/03/20 06:47:20;;;;;;;0.40;0.40;;;;;;;4.43;100.00;100677.53;4985765;28;20153;-73
2024/03/20 06:49:47;;;;;;;0.43;0.43;;;;;;;4.44;100.00;100677.56;4986356;28;20030;-74
2024/03/20 06:52:14;;;;;;;0.40;0.40;;;;;;;4.45;100.00;100683.56;4968353;28;20033;-74
2024/03/20 06:57:15;;;;;;;0.43;0.43;;;;;;;4.29;100.00;100670.41;5374727;22;20272;-72
2024/03/20 06:59:44;;;;;;;0.40;0.40;;;;;;;4.44;100.00;100687.84;5023979;28;20036;-74
2024/03/20 07:02:09;;;;;;;0.50;0.50;;;;;;;4.49;100.00;100695.66;5025194;28;20025;-73
2024/03/20 07:04:35;;;;;;;0.40;0.40;;;;;;;4.45;100.00;100689.59;5024505;28;20026;-74
2024/03/20 07:07:03;;;;;;;0.60;0.60;;;;;;;4.51;100.00;100700.81;5024814;28;20492;-74
2024/03/20 07:09:32;;;;;;;0.40;0.40;;;;;;;4.51;100.00;100701.69;5024805;28;20092;-74
2024/03/20 07:11:59;;;;;;;0.40;0.40;;;;;;;4.53;100.00;100701.72;5007220;28;20385;-74
2024/03/20 07:14:26;;;;;;;0.40;0.40;;;;;;;4.50;100.00;100709.38;5006642;28;20022;-74
2024/03/20 07:16:52;;;;;;;0.40;0.40;;;;;;;4.43;100.00;100704.13;5024896;28;20038;-74
2024/03/20 07:19:17;;;;;;;0.40;0.40;;;;;;;4.47;100.00;100705.91;5024750;28;20075;-75
2024/03/20 07:21:42;;;;;;;0.40;0.40;;;;;;;4.42;100.00;100706.66;5025333;28;20048;-75
2024/03/20 07:24:08;;;;;;;0.50;0.50;;;;;;;4.42;100.00;100711.78;5025118;28;20056;-74
2024/03/20 07:26:38;;;;;;;0.40;0.40;;;;;;;4.38;100.00;100717.72;5025131;28;20029;-74
2024/03/20 07:31:33;;;;;;;0.70;0.70;;;;;;;4.30;100.00;100709.81;4984523;28;20119;-75
2024/03/20 07:33:59;;;;;;;0.40;0.40;;;;;;;4.21;100.00;100718.19;4986157;28;20031;-74
2024/03/20 07:36:24;;;;;;;0.40;0.40;;;;;;;4.22;100.00;100714.78;4986045;28;20023;-75
2024/03/20 07:38:50;;;;;;;0.60;0.60;;;;;;;4.28;100.00;100724.34;4986136;28;20035;-74
2024/03/20 07:41:15;;;;;;;0.30;0.30;;;;;;;4.27;100.00;100722.59;4985993;28;20124;-75
2024/03/20 07:43:40;;;;;;;0.40;0.40;;;;;;;4.24;100.00;100719.94;4986223;28;20019;-75
2024/03/20 07:46:06;;;;;;;0.43;0.43;;;;;;;4.25;100.00;100716.56;4985978;28;20488;-74
2024/03/20 07:48:32;;;;;;;0.40;0.40;;;;;;;4.21;100.00;100719.06;4968627;28;20026;-74
2024/03/20 07:50:58;;;;;;;0.40;0.40;;;;;;;4.26;100.00;100726.00;4986885;28;20042;-74
2024/03/20 07:53:24;;;;;;;0.82;0.82;;;;;;;4.22;100.00;100720.78;4972315;28;20022;-75
2024/03/20 07:55:50;;;;;;;0.45;0.45;;;;;;;4.26;100.00;100726.00;4989577;28;20030;-75
2024/03/20 07:58:17;;;;;;;0.40;0.40;;;;;;;4.31;100.00;100734.69;4989597;28;20054;-73
2024/03/20 08:00:43;;;;;;;0.50;0.50;;;;;;;4.17;100.00;100727.53;4971897;28;20033;-75
2024/03/20 08:03:08;;;;;;;0.40;0.40;;;;;;;4.09;100.00;100729.91;4989625;28;20058;-74
2024/03/20 08:05:34;;;;;;;0.40;0.40;;;;;;;4.07;100.00;100741.00;4989483;28;20034;-76
2024/03/20 08:07:59;;;;;;;0.63;0.63;;;;;;;4.08;100.00;100740.16;4989561;28;20110;-74
2024/03/20 08:10:25;;;;;;;0.40;0.40;;;;;;;4.05;100.00;100740.97;4989367;28;20027;-74
2024/03/20 08:12:50;;;;;;;0.40;0.40;;;;;;;4.04;100.00;100743.50;4988149;28;20029;-75
2024/03/20 08:15:17;;;;;;;0.40;0.40;;;;;;;4.01;100.00;100740.84;4989514;28;20027;-75
2024/03/20 08:17:44;;;;;;;0.47;0.47;;;;;;;4.05;100.00;100756.38;4989505;28;20029;-75
2024/03/20 08:20:12;;;;;;;0.40;0.40;;;;;;;3.96;100.00;100751.88;4989446;28;20069;-74
2024/03/20 08:22:39;;;;;;;0.40;0.40;;;;;;;3.97;100.00;100751.06;4971727;28;20119;-75
2024/03/20 08:25:05;;;;;;;0.40;0.40;;;;;;;3.99;100.00;100750.22;4989307;28;20023;-76
2024/03/20 08:27:30;;;;;;;0.70;0.70;;;;;;;3.97;100.00;100748.50;4989126;28;20030;-76
2024/03/20 08:29:59;;;;;;;0.50;0.50;;;;;;;3.95;100.00;100746.69;4971475;28;20057;-76
2024/03/20 08:32:25;;;;;;;0.47;0.47;;;;;;;4.02;100.00;100751.16;4990631;28;20029;-75
2024/03/20 08:34:51;;;;;;;0.50;0.50;;;;;;;4.00;100.00;100751.94;4989673;28;20034;-75
2024/03/20 08:37:16;;;;;;;0.40;0.40;;;;;;;4.03;100.00;100760.59;4989009;28;20082;-75
2024/03/20 08:39:42;;;;;;;0.50;0.50;;;;;;;4.04;100.00;100762.31;4971293;28;20070;-74
2024/03/20 08:42:07;;;;;;;0.40;0.40;;;;;;;4.06;100.00;100764.94;4988693;28;20118;-76
2024/03/20 08:44:33;;;;;;;0.63;0.63;;;;;;;4.03;100.00;100765.75;4988726;28;20019;-76
2024/03/20 08:46:59;;;;;;;1.27;1.20;;;;;;;4.16;100.00;100763.47;4988685;28;20027;-76
2024/03/20 08:49:24;;;;;;;0.40;0.40;;;;;;;4.19;100.00;100766.97;4988788;28;20061;-76
2024/03/20 08:51:51;;;;;;;1.13;1.13;;;;;;;4.17;100.00;100773.78;4988635;28;20023;-75
2024/03/20 08:54:18;;;;;;;0.40;0.40;;;;;;;4.10;100.00;100766.75;4988424;28;20050;-75
2024/03/20 08:56:43;;;;;;;0.50;0.50;;;;;;;4.05;100.00;100778.63;4988429;28;20042;-75
2024/03/20 08:59:08;;;;;;;0.40;0.40;;;;;;;4.07;100.00;100774.41;4988459;28;20026;-75
2024/03/20 09:01:35;;;;;;;0.93;0.93;;;;;;;4.04;100.00;100777.75;4986946;28;20029;-76
2024/03/20 09:04:00;;;;;;;0.45;0.45;;;;;;;3.99;100.00;100771.66;4988567;28;20026;-75
2024/03/20 09:06:25;;;;;;;0.47;0.47;;;;;;;4.00;100.00;100780.19;4988394;28;20045;-74
2024/03/20 09:08:51;;;;;;;0.40;0.40;;;;;;;3.99;100.00;100778.47;4988302;28;20027;-75
2024/03/20 09:11:17;;;;;;;0.40;0.40;;;;;;;4.00;100.00;100780.19;4970623;28;20031;-75
2024/03/20 09:13:43;;;;;;;0.40;0.40;;;;;;;3.99;100.00;100776.78;4988253;28;20026;-74
2024/03/20 09:16:08;;;;;;;0.85;0.85;;;;;;;4.02;100.00;100770.84;4988148;28;20038;-75
2024/03/20 09:18:33;;;;;;;2.63;2.47;;;;;;;4.03;100.00;100770.00;4988145;28;20282;-75
2024/03/20 09:20:59;;;;;;;0.40;0.40;;;;;;;4.15;100.00;100774.59;4970635;28;20040;-75
2024/03/20 09:23:24;;;;;;;1.60;1.50;;;;;;;4.18;100.00;100777.22;4987992;28;20034;-74
2024/03/20 09:25:50;;;;;;;0.75;0.75;;;;;;;4.21;100.00;100777.28;4970472;28;20022;-75
2024/03/20 09:28:15;;;;;;;0.40;0.40;;;;;;;4.26;100.00;100777.41;4987883;28;20030;-75
2024/03/20 09:30:41;;;;;;;0.60;0.60;;;;;;;4.19;100.00;100773.81;4987482;28;20043;-75
2024/03/20 09:33:06;;;;;;;0.57;0.57;;;;;;;4.22;100.00;100773.88;4986589;28;20034;-74
2024/03/20 09:35:32;;;;;;;0.40;0.40;;;;;;;4.25;100.00;100783.38;4987761;28;20031;-75
2024/03/20 09:37:57;;;;;;;0.50;0.50;;;;;;;4.22;100.00;100776.44;4987747;28;20045;-74
2024/03/20 09:40:24;;;;;;;0.40;0.40;;;;;;;4.22;100.00;100792.75;4987588;28;20039;-74
2024/03/20 09:42:55;;;;;;;0.40;0.40;;;;;;;4.26;100.00;100782.53;4970123;28;20462;-74
2024/03/20 09:45:23;;;;;;;0.50;0.50;;;;;;;4.29;100.00;100785.19;4987497;28;20027;-74
2024/03/20 09:47:50;;;;;;;0.40;0.40;;;;;;;4.33;100.00;100787.88;4987742;28;20054;-74
2024/03/20 09:50:18;;;;;;;0.40;0.40;;;;;;;4.29;100.00;100782.63;4987445;28;20049;-74
2024/03/20 09:52:44;;;;;;;0.40;0.40;;;;;;;4.34;100.00;100793.88;4987456;28;20065;-74
2024/03/20 09:55:13;;;;;;;0.43;0.43;;;;;;;4.29;100.00;100785.19;4969820;28;20019;-75
2024/03/20 09:57:43;;;;;;;0.45;0.45;;;;;;;4.19;100.00;100789.22;4987257;28;20027;-74
2024/03/20 10:00:14;;;;;;;0.40;0.40;;;;;;;4.09;100.00;100788.13;4969838;28;20050;-74
2024/03/20 10:02:39;;;;;;;0.50;0.50;;;;;;;4.07;100.00;100793.25;4987145;28;20027;-74
2024/03/20 10:05:06;;;;;;;0.60;0.60;;;;;;;4.11;100.00;100788.16;4985898;28;20090;-74
2024/03/20 10:07:31;;;;;;;0.40;0.40;;;;;;;4.16;100.00;100777.19;4987165;28;20023;-75
2024/03/20 10:09:57;;;;;;;0.43;0.43;;;;;;;4.21;100.00;100785.88;4969327;28;20034;-73
2024/03/20 10:12:24;;;;;;;0.45;0.45;;;;;;;4.25;100.00;100786.81;4986968;28;20533;-74
2024/03/20 10:14:50;;;;;;;0.40;0.40;;;;;;;4.29;100.00;100793.78;4969184;28;20034;-74
2024/03/20 10:17:17;;;;;;;0.40;0.40;;;;;;;4.31;100.00;100791.25;4986989;28;20083;-75
2024/03/20 10:19:44;;;;;;;0.50;0.50;;;;;;;4.27;100.00;100784.28;4987077;28;20041;-75
2024/03/20 10:22:10;;;;;;;0.40;0.40;;;;;;;4.34;100.00;100787.03;4986892;28;20023;-74
2024/03/20 10:24:36;;;;;;;0.40;0.40;;;;;;;4.43;100.00;100791.53;4985642;28;20046;-74
2024/03/20 10:27:03;;;;;;;0.47;0.47;;;;;;;4.42;100.00;100791.50;4987179;28;20026;-74
2024/03/20 10:29:30;;;;;;;0.80;0.80;;;;;;;4.39;100.00;100786.28;4986927;28;20049;-75
2024/03/20 10:31:56;;;;;;;0.40;0.40;;;;;;;4.32;100.00;100782.69;4986918;28;20023;-75
2024/03/20 10:34:23;;;;;;;0.50;0.50;;;;;;;4.41;100.00;100803.47;4986758;28;20022;-75
2024/03/20 10:36:49;;;;;;;0.40;0.40;;;;;;;4.38;100.00;100795.69;4986732;28;20125;-74
2024/03/20 10:39:19;;;;;;;0.40;0.40;;;;;;;4.42;100.00;100791.50;4986788;28;20065;-74
2024/03/20 10:41:46;;;;;;;0.40;0.40;;;;;;;4.48;100.00;100794.19;4986737;28;20023;-74
2024/03/20 10:44:17;;;;;;;0.50;0.50;;;;;;;4.54;100.00;100794.34;4986709;28;20027;-74
2024/03/20 10:46:48;;;;;;;0.40;0.40;;;;;;;4.55;100.00;100795.22;4986845;28;20081;-74
2024/03/20 10:49:25;;;;;;;0.40;0.40;;;;;;;4.55;100.00;100793.50;4988080;28;20415;-74
2024/03/20 10:51:54;;;;;;;0.55;0.55;;;;;;;4.61;100.00;100790.22;4986627;28;20391;-74
2024/03/20 10:54:20;;;;;;;0.40;0.40;;;;;;;4.66;100.00;100792.88;4986654;28;20086;-73
2024/03/20 10:56:51;;;;;;;0.40;0.40;;;;;;;4.69;100.00;100792.94;4986383;28;20516;-74
2024/03/20 10:59:22;;;;;;;0.40;0.40;;;;;;;4.63;100.00;100792.81;4986430;28;20086;-74
2024/03/20 11:02:03;;;;;;;0.40;0.40;;;;;;;4.66;100.00;100801.47;4986369;28;20081;-74
2024/03/20 11:04:31;;;;;;;0.40;0.40;;;;;;;4.69;100.00;100798.09;4986446;28;20027;-75
2024/03/20 11:06:58;;;;;;;0.50;0.50;;;;;;;4.75;100.00;100802.50;4986515;28;20050;-75
2024/03/20 11:09:26;;;;;;;0.40;0.40;;;;;;;4.75;100.00;100789.63;4986465;28;20439;-76
2024/03/20 11:11:52;;;;;;;0.40;0.40;;;;;;;4.82;100.00;100804.38;4986327;28;20026;-75
2024/03/20 11:14:29;;;;;;;0.40;0.40;;;;;;;4.89;100.00;100795.94;4986280;28;20027;-74
2024/03/20 11:17:00;;;;;;;0.40;0.40;;;;;;;5.04;100.00;100807.41;4986408;28;20026;-74
2024/03/20 11:19:26;;;;;;;0.50;0.50;;;;;;;5.04;100.00;100799.69;4986619;28;20057;-73
2024/03/20 11:21:53;;;;;;;0.40;0.40;;;;;;;5.07;100.00;100810.03;4968835;28;20042;-72
2024/03/20 11:24:19;;;;;;;0.40;0.40;;;;;;;4.99;100.00;100814.16;4986180;28;20023;-73